Time;durP1;ratioP1;P1;durP2;ratioP2;P2;SDS_P1;SDS_P2;PMS_P1;PMS_P2;Temp;Humidity;BMP_temperature;BMP_pressure;BME280_temperature;BME280_humidity;BME280_pressure;Samples;Min_cycle;Max_cycle;Signal;HPM_P1;HPM_P2
2023/09/10 00:01:07;;;;;;;8.02;4.88;;;;;;;;;;5100836;28;20636;-73
2023/09/10 00:03:35;;;;;;;6.20;4.57;;;;;;;;;;5101085;28;20228;-74
2023/09/10 00:06:05;;;;;;;6.90;4.90;;;;;;;;;;5100991;28;20291;-73
2023/09/10 00:08:34;;;;;;;6.63;5.10;;;;;;;;;;5100797;28;20202;-73
2023/09/10 00:11:02;;;;;;;5.28;4.60;;;;;;;;;;5100776;28;20242;-73
2023/09/10 00:13:30;;;;;;;5.35;4.85;;;;;;;;;;5100544;28;20211;-74
2023/09/10 00:15:58;;;;;;;7.57;5.05;;;;;;;;;;5100928;28;20219;-74
2023/09/10 00:18:26;;;;;;;6.40;4.72;;;;;;;;;;5100640;28;20639;-74
2023/09/10 00:20:54;;;;;;;6.03;4.75;;;;;;;;;;5099953;28;20726;-74
2023/09/10 00:23:22;;;;;;;6.07;5.47;;;;;;;;;;5100682;28;20213;-74
2023/09/10 00:25:51;;;;;;;5.47;4.97;;;;;;;;;;5100489;28;20665;-74
2023/09/10 00:28:19;;;;;;;7.93;5.10;;;;;;;;;;5100441;28;20668;-74
2023/09/10 00:30:52;;;;;;;5.70;4.53;;;;;;;;;;5100250;28;20232;-74
2023/09/10 00:33:20;;;;;;;6.85;5.20;;;;;;;;;;5100522;28;20207;-74
2023/09/10 00:35:48;;;;;;;5.43;4.93;;;;;;;;;;5100290;28;20685;-73
2023/09/10 00:38:16;;;;;;;7.23;5.77;;;;;;;;;;5100117;28;20208;-74
2023/09/10 00:40:44;;;;;;;5.97;5.07;;;;;;;;;;5100468;28;20307;-74
2023/09/10 00:43:13;;;;;;;7.40;5.60;;;;;;;;;;5100230;28;20236;-73
2023/09/10 00:45:41;;;;;;;5.63;5.00;;;;;;;;;;5100095;28;20211;-75
2023/09/10 00:48:09;;;;;;;8.87;5.20;;;;;;;;;;5100169;28;20213;-74
2023/09/10 00:50:37;;;;;;;6.13;4.70;;;;;;;;;;5099824;28;20236;-73
2023/09/10 00:53:06;;;;;;;7.57;5.57;;;;;;;;;;5100006;28;20265;-74
2023/09/10 00:55:34;;;;;;;6.13;5.53;;;;;;;;;;5099918;28;20207;-74
2023/09/10 00:58:03;;;;;;;7.27;5.07;;;;;;;;;;5099861;28;20230;-74
2023/09/10 01:00:33;;;;;;;10.63;7.17;;;;;;;;;;5099482;28;20236;-74
2023/09/10 01:03:02;;;;;;;5.97;5.07;;;;;;;;;;5100053;28;20205;-74
2023/09/10 01:05:32;;;;;;;5.60;5.10;;;;;;;;;;5099919;28;20267;-73
2023/09/10 01:08:00;;;;;;;5.60;5.10;;;;;;;;;;5099552;28;20211;-75
2023/09/10 01:10:34;;;;;;;5.23;4.73;;;;;;;;;;5099772;28;20239;-74
2023/09/10 01:13:09;;;;;;;5.07;4.57;;;;;;;;;;5099890;28;20265;-74
2023/09/10 01:15:42;;;;;;;6.13;5.17;;;;;;;;;;5099562;28;20233;-75
2023/09/10 01:18:14;;;;;;;5.20;4.70;;;;;;;;;;5099603;28;20236;-74
2023/09/10 01:21:10;;;;;;;5.37;4.80;;;;;;;;;;5099633;28;20258;-74
2023/09/10 01:23:44;;;;;;;4.90;4.50;;;;;;;;;;5099537;28;20207;-74
2023/09/10 01:26:13;;;;;;;5.30;4.87;;;;;;;;;;5099270;28;20679;-74
2023/09/10 01:28:41;;;;;;;6.20;4.67;;;;;;;;;;5099306;28;20201;-74
2023/09/10 01:31:09;;;;;;;5.37;4.87;;;;;;;;;;5099257;28;20234;-74
2023/09/10 01:33:40;;;;;;;5.30;4.77;;;;;;;;;;5098268;28;20206;-74
2023/09/10 01:36:12;;;;;;;5.93;5.40;;;;;;;;;;5099267;28;20203;-74
2023/09/10 01:38:42;;;;;;;5.77;4.83;;;;;;;;;;5099000;28;20571;-73
2023/09/10 01:41:11;;;;;;;7.27;5.50;;;;;;;;;;5099060;28;20228;-73
2023/09/10 01:43:41;;;;;;;6.53;5.30;;;;;;;;;;5098714;28;20220;-74
2023/09/10 01:46:09;;;;;;;7.10;5.07;;;;;;;;;;5099007;28;20216;-74
2023/09/10 01:48:38;;;;;;;8.00;5.07;;;;;;;;;;5099155;28;20205;-73
2023/09/10 01:51:06;;;;;;;5.50;5.00;;;;;;;;;;5098629;28;20734;-74
2023/09/10 01:53:34;;;;;;;8.13;5.70;;;;;;;;;;5099002;28;20209;-74
2023/09/10 01:56:02;;;;;;;6.53;5.47;;;;;;;;;;5098656;28;20205;-74
2023/09/10 01:58:30;;;;;;;5.93;5.43;;;;;;;;;;5098306;28;20252;-74
2023/09/10 02:00:59;;;;;;;5.37;4.60;;;;;;;;;;5098426;28;20232;-74
2023/09/10 02:03:28;;;;;;;6.67;5.50;;;;;;;;;;5098917;28;20211;-74
2023/09/10 02:05:58;;;;;;;5.70;5.10;;;;;;;;;;5085366;28;20236;-73
2023/09/10 02:08:26;;;;;;;7.20;4.97;;;;;;;;;;5098677;28;20206;-74
2023/09/10 02:10:54;;;;;;;4.93;4.53;;;;;;;;;;5098465;28;20711;-73
2023/09/10 02:13:22;;;;;;;5.80;5.27;;;;;;;;;;5098278;28;20316;-75
2023/09/10 02:15:50;;;;;;;5.20;4.57;;;;;;;;;;5098301;28;20608;-74
2023/09/10 02:18:21;;;;;;;7.33;5.00;;;;;;;;;;5098262;28;20217;-74
2023/09/10 02:20:49;;;;;;;5.13;4.53;;;;;;;;;;5098636;28;20223;-74
2023/09/10 02:23:18;;;;;;;7.03;5.07;;;;;;;;;;5098237;28;20209;-73
2023/09/10 02:25:45;;;;;;;5.60;5.10;;;;;;;;;;5098343;28;20580;-74
2023/09/10 02:28:14;;;;;;;6.23;5.30;;;;;;;;;;5098463;28;20206;-73
2023/09/10 02:30:42;;;;;;;5.63;5.10;;;;;;;;;;5098226;28;20229;-73
2023/09/10 02:33:10;;;;;;;6.77;5.03;;;;;;;;;;5098189;28;20255;-73
2023/09/10 02:35:39;;;;;;;6.17;4.90;;;;;;;;;;5098097;28;20209;-75
2023/09/10 02:38:07;;;;;;;6.07;5.17;;;;;;;;;;5098208;28;20210;-73
2023/09/10 02:40:35;;;;;;;6.20;5.60;;;;;;;;;;5097884;28;20225;-74
2023/09/10 02:43:04;;;;;;;5.67;5.17;;;;;;;;;;5098106;28;20207;-74
2023/09/10 02:45:31;;;;;;;6.40;5.50;;;;;;;;;;5097617;28;20209;-73
2023/09/10 02:47:59;;;;;;;6.20;5.50;;;;;;;;;;5098004;28;20211;-73
2023/09/10 02:50:28;;;;;;;6.00;5.23;;;;;;;;;;5098129;28;20300;-74
2023/09/10 02:52:57;;;;;;;9.23;5.53;;;;;;;;;;5097995;28;20229;-74
2023/09/10 02:55:25;;;;;;;5.57;5.03;;;;;;;;;;5098049;28;20295;-74
2023/09/10 02:57:53;;;;;;;5.80;5.30;;;;;;;;;;5097696;28;20246;-73
2023/09/10 03:00:25;;;;;;;7.60;5.77;;;;;;;;;;5097547;28;20228;-73
2023/09/10 03:02:54;;;;;;;7.00;5.30;;;;;;;;;;5098035;28;20207;-75
2023/09/10 03:05:22;;;;;;;12.07;5.23;;;;;;;;;;5097802;28;20214;-72
2023/09/10 03:07:53;;;;;;;5.93;5.27;;;;;;;;;;5098005;28;20549;-73
2023/09/10 03:10:22;;;;;;;6.57;5.53;;;;;;;;;;5097968;28;20260;-74
2023/09/10 03:12:50;;;;;;;6.03;5.43;;;;;;;;;;5097467;28;20621;-74
2023/09/10 03:15:18;;;;;;;6.27;5.47;;;;;;;;;;5097612;28;20245;-73
2023/09/10 03:17:46;;;;;;;6.17;5.57;;;;;;;;;;5097960;28;20206;-73
2023/09/10 03:20:14;;;;;;;10.10;6.93;;;;;;;;;;5097442;28;20582;-74
2023/09/10 03:22:42;;;;;;;6.23;5.20;;;;;;;;;;5097764;28;20212;-73
2023/09/10 03:25:11;;;;;;;6.07;5.40;;;;;;;;;;5097466;28;20205;-76
2023/09/10 03:27:40;;;;;;;9.63;6.20;;;;;;;;;;5097840;28;20259;-75
2023/09/10 03:30:09;;;;;;;6.33;5.70;;;;;;;;;;5097078;28;20235;-76
2023/09/10 03:32:37;;;;;;;6.47;5.40;;;;;;;;;;5097476;28;20259;-76
2023/09/10 03:35:06;;;;;;;8.67;5.87;;;;;;;;;;5097534;28;20217;-75
2023/09/10 03:37:34;;;;;;;6.57;5.57;;;;;;;;;;5091125;28;20205;-75
2023/09/10 03:40:04;;;;;;;5.67;4.83;;;;;;;;;;5097610;28;20231;-76
2023/09/10 03:42:33;;;;;;;6.07;5.20;;;;;;;;;;5097626;28;20215;-76
2023/09/10 03:45:03;;;;;;;5.97;5.33;;;;;;;;;;5097710;28;20212;-75
2023/09/10 03:47:33;;;;;;;6.13;5.07;;;;;;;;;;5097585;28;20205;-75
2023/09/10 03:50:02;;;;;;;7.30;5.70;;;;;;;;;;5097602;28;20226;-74
2023/09/10 03:52:30;;;;;;;6.87;5.80;;;;;;;;;;5097414;28;20230;-74
2023/09/10 03:54:58;;;;;;;8.57;5.97;;;;;;;;;;5097277;28;20563;-73
2023/09/10 03:57:26;;;;;;;6.37;5.70;;;;;;;;;;5100894;28;20218;-67
2023/09/10 03:59:54;;;;;;;5.40;4.90;;;;;;;;;;5100802;28;20300;-66
2023/09/10 04:02:24;;;;;;;15.07;5.33;;;;;;;;;;5100653;28;20670;-65
2023/09/10 04:04:52;;;;;;;5.40;4.90;;;;;;;;;;5101202;28;20294;-66
2023/09/10 04:07:20;;;;;;;6.17;5.50;;;;;;;;;;5100797;28;20215;-65
2023/09/10 04:09:48;;;;;;;10.37;5.83;;;;;;;;;;5100863;28;20207;-65
2023/09/10 04:12:16;;;;;;;5.63;5.13;;;;;;;;;;5100877;28;20214;-65
2023/09/10 04:14:44;;;;;;;6.60;5.73;;;;;;;;;;5100918;28;20207;-67
2023/09/10 04:17:15;;;;;;;7.00;5.90;;;;;;;;;;5100692;28;20205;-66
2023/09/10 04:19:46;;;;;;;5.87;5.37;;;;;;;;;;5100434;28;20272;-66
2023/09/10 04:22:14;;;;;;;7.93;5.27;;;;;;;;;;5100859;28;20208;-67
2023/09/10 04:24:42;;;;;;;6.07;5.13;;;;;;;;;;5100432;28;20633;-67
2023/09/10 04:27:10;;;;;;;7.33;5.30;;;;;;;;;;5100730;28;20240;-67
2023/09/10 04:29:38;;;;;;;6.13;5.37;;;;;;;;;;5100007;28;20208;-67
2023/09/10 04:32:06;;;;;;;8.47;5.90;;;;;;;;;;5100732;28;20212;-66
2023/09/10 04:34:34;;;;;;;5.73;5.13;;;;;;;;;;5100267;28;20707;-66
2023/09/10 04:37:04;;;;;;;5.47;4.97;;;;;;;;;;5100415;28;20207;-66
2023/09/10 04:39:32;;;;;;;7.07;5.33;;;;;;;;;;5100439;28;20208;-67
2023/09/10 04:42:02;;;;;;;5.80;5.23;;;;;;;;;;5100504;28;20210;-67
2023/09/10 04:44:30;;;;;;;6.47;5.40;;;;;;;;;;5100208;28;20203;-66
2023/09/10 04:46:58;;;;;;;10.33;5.47;;;;;;;;;;5100073;28;20272;-66
2023/09/10 04:49:26;;;;;;;7.70;5.47;;;;;;;;;;5100248;28;20289;-67
2023/09/10 04:51:54;;;;;;;6.80;5.37;;;;;;;;;;5099899;28;20267;-66
2023/09/10 04:54:23;;;;;;;6.40;5.43;;;;;;;;;;5100040;28;20234;-66
2023/09/10 04:56:53;;;;;;;6.80;5.30;;;;;;;;;;5100202;28;20214;-67
2023/09/10 04:59:25;;;;;;;7.10;5.77;;;;;;;;;;5099407;28;20324;-66
2023/09/10 05:01:53;;;;;;;8.50;5.63;;;;;;;;;;5099792;28;20314;-66
2023/09/10 05:04:21;;;;;;;5.73;5.20;;;;;;;;;;5099774;28;20547;-66
2023/09/10 05:06:49;;;;;;;6.93;5.20;;;;;;;;;;5099564;28;20613;-66
2023/09/10 05:09:17;;;;;;;6.80;5.47;;;;;;;;;;5099880;28;20217;-67
2023/09/10 05:11:46;;;;;;;5.93;5.33;;;;;;;;;;5099840;28;20262;-67
2023/09/10 05:14:14;;;;;;;7.10;5.47;;;;;;;;;;5099616;28;20234;-67
2023/09/10 05:16:42;;;;;;;7.03;5.60;;;;;;;;;;5099397;28;20218;-67
2023/09/10 05:19:10;;;;;;;7.53;5.00;;;;;;;;;;5099478;28;20202;-66
2023/09/10 05:21:38;;;;;;;6.07;5.47;;;;;;;;;;5099250;28;20227;-66
2023/09/10 05:24:07;;;;;;;6.10;5.50;;;;;;;;;;5099564;28;20200;-67
2023/09/10 05:26:35;;;;;;;11.10;5.87;;;;;;;;;;5099225;28;20686;-67
2023/09/10 05:29:05;;;;;;;7.83;5.90;;;;;;;;;;5099276;28;20216;-66
2023/09/10 05:31:33;;;;;;;7.83;6.23;;;;;;;;;;5099357;28;20232;-67
2023/09/10 05:34:01;;;;;;;9.27;6.07;;;;;;;;;;5099105;28;20282;-67
2023/09/10 05:36:29;;;;;;;6.37;5.77;;;;;;;;;;5099325;28;20263;-67
2023/09/10 05:38:57;;;;;;;6.50;5.57;;;;;;;;;;5099161;28;20601;-67
2023/09/10 05:41:25;;;;;;;5.60;5.10;;;;;;;;;;5099176;28;20223;-67
2023/09/10 05:43:53;;;;;;;6.37;5.47;;;;;;;;;;5098789;28;20215;-67
2023/09/10 05:46:22;;;;;;;7.17;5.60;;;;;;;;;;5099274;28;20211;-67
2023/09/10 05:48:51;;;;;;;6.23;5.70;;;;;;;;;;5099136;28;20214;-66
2023/09/10 05:51:19;;;;;;;6.30;5.60;;;;;;;;;;5098781;28;20231;-67
2023/09/10 05:53:46;;;;;;;12.70;6.30;;;;;;;;;;5098578;28;20223;-66
2023/09/10 05:56:15;;;;;;;8.20;6.60;;;;;;;;;;5098777;28;20648;-66
2023/09/10 05:58:43;;;;;;;9.63;5.73;;;;;;;;;;5098219;28;20614;-66
2023/09/10 06:01:11;;;;;;;6.07;5.50;;;;;;;;;;5098831;28;20230;-66
2023/09/10 06:03:40;;;;;;;7.27;6.17;;;;;;;;;;5098834;28;20211;-66
2023/09/10 06:06:10;;;;;;;6.63;5.97;;;;;;;;;;5098925;28;20298;-68
2023/09/10 06:08:38;;;;;;;8.43;6.20;;;;;;;;;;5098371;28;20220;-67
2023/09/10 06:11:06;;;;;;;7.70;5.50;;;;;;;;;;5098432;28;20235;-67
2023/09/10 06:13:34;;;;;;;6.70;5.63;;;;;;;;;;5098273;28;20221;-66
2023/09/10 06:16:02;;;;;;;6.67;6.07;;;;;;;;;;5098728;28;20205;-65
2023/09/10 06:18:30;;;;;;;7.20;5.83;;;;;;;;;;5098056;28;20249;-67
2023/09/10 06:21:00;;;;;;;7.53;6.13;;;;;;;;;;5098546;28;20228;-66
2023/09/10 06:23:28;;;;;;;9.07;6.80;;;;;;;;;;5098374;28;20212;-66
2023/09/10 06:25:56;;;;;;;7.60;6.27;;;;;;;;;;5098521;28;20209;-68
2023/09/10 06:28:25;;;;;;;7.27;6.50;;;;;;;;;;5098088;28;20208;-67
2023/09/10 06:30:53;;;;;;;8.33;6.83;;;;;;;;;;5098081;28;20643;-65
2023/09/10 06:33:21;;;;;;;7.60;6.83;;;;;;;;;;5098307;28;20212;-67
2023/09/10 06:35:49;;;;;;;8.33;7.17;;;;;;;;;;5097992;28;20250;-65
2023/09/10 06:38:19;;;;;;;7.53;6.33;;;;;;;;;;5098229;28;20203;-67
2023/09/10 06:40:48;;;;;;;7.40;6.70;;;;;;;;;;5098272;28;20296;-67
2023/09/10 06:43:16;;;;;;;8.37;6.87;;;;;;;;;;5097992;28;20209;-67
2023/09/10 06:45:44;;;;;;;9.53;7.43;;;;;;;;;;5097996;28;20296;-67
2023/09/10 06:48:12;;;;;;;9.40;6.97;;;;;;;;;;5098352;28;20240;-67
2023/09/10 06:50:40;;;;;;;7.60;6.90;;;;;;;;;;5097880;28;20236;-67
2023/09/10 06:53:08;;;;;;;7.83;7.03;;;;;;;;;;5098115;28;20632;-67
2023/09/10 06:55:37;;;;;;;11.67;7.07;;;;;;;;;;5098028;28;20313;-67
2023/09/10 06:58:05;;;;;;;7.30;6.60;;;;;;;;;;5097987;28;20261;-67
2023/09/10 07:00:34;;;;;;;7.70;6.87;;;;;;;;;;5097415;28;20705;-67
2023/09/10 07:03:06;;;;;;;9.50;6.20;;;;;;;;;;5097862;28;20648;-67
2023/09/10 07:05:34;;;;;;;8.70;6.90;;;;;;;;;;5098016;28;20239;-67
2023/09/10 07:08:02;;;;;;;6.97;6.37;;;;;;;;;;5097627;28;20249;-67
2023/09/10 07:10:30;;;;;;;7.33;5.87;;;;;;;;;;5097826;28;20233;-67
2023/09/10 07:13:00;;;;;;;8.53;6.27;;;;;;;;;;5097695;28;20233;-67
2023/09/10 07:15:28;;;;;;;7.07;5.87;;;;;;;;;;5097220;28;20279;-67
2023/09/10 07:17:56;;;;;;;7.33;6.27;;;;;;;;;;5097594;28;20266;-67
2023/09/10 07:20:24;;;;;;;7.30;6.50;;;;;;;;;;5097472;28;20237;-66
2023/09/10 07:22:52;;;;;;;7.60;5.50;;;;;;;;;;5097946;28;20211;-66
2023/09/10 07:25:20;;;;;;;7.27;5.60;;;;;;;;;;5097513;28;20200;-66
2023/09/10 07:27:48;;;;;;;6.33;5.73;;;;;;;;;;5097810;28;20228;-67
2023/09/10 07:30:17;;;;;;;6.43;5.87;;;;;;;;;;5097707;28;20227;-66
2023/09/10 07:32:46;;;;;;;7.57;6.27;;;;;;;;;;5101752;28;20205;-67
2023/09/10 07:35:16;;;;;;;6.73;5.90;;;;;;;;;;5101455;28;20701;-68
2023/09/10 07:37:44;;;;;;;7.43;6.07;;;;;;;;;;5101500;28;20207;-67
2023/09/10 07:40:14;;;;;;;7.03;6.03;;;;;;;;;;5101445;28;20227;-66
2023/09/10 07:42:42;;;;;;;6.10;5.47;;;;;;;;;;5101345;28;20574;-67
2023/09/10 07:45:14;;;;;;;6.57;5.60;;;;;;;;;;5101046;28;20212;-66
2023/09/10 07:47:43;;;;;;;6.93;5.63;;;;;;;;;;5101492;28;20211;-67
2023/09/10 07:50:11;;;;;;;8.33;5.27;;;;;;;;;;5101380;28;20231;-67
2023/09/10 07:52:39;;;;;;;8.30;5.80;;;;;;;;;;5101139;28;20242;-68
2023/09/10 07:55:07;;;;;;;6.90;6.20;;;;;;;;;;5101242;28;20229;-67
2023/09/10 07:57:35;;;;;;;6.60;6.00;;;;;;;;;;5100793;28;20232;-66
2023/09/10 08:00:04;;;;;;;6.73;5.77;;;;;;;;;;5100687;28;20237;-66
2023/09/10 08:02:34;;;;;;;7.47;5.72;;;;;;;;;;5101206;28;20226;-68
2023/09/10 08:05:05;;;;;;;6.10;5.50;;;;;;;;;;5101154;28;20227;-67
2023/09/10 08:07:34;;;;;;;8.53;5.77;;;;;;;;;;5100915;28;20657;-67
2023/09/10 08:10:02;;;;;;;7.27;5.80;;;;;;;;;;5100916;28;20231;-67
2023/09/10 08:12:30;;;;;;;7.13;5.87;;;;;;;;;;5101092;28;20211;-67
2023/09/10 08:14:58;;;;;;;7.73;5.23;;;;;;;;;;5100539;28;20225;-67
2023/09/10 08:17:26;;;;;;;7.63;5.47;;;;;;;;;;5100678;28;20227;-67
2023/09/10 08:19:54;;;;;;;6.40;5.27;;;;;;;;;;5100819;28;20206;-67
2023/09/10 08:22:23;;;;;;;5.50;4.97;;;;;;;;;;5100896;28;20203;-67
2023/09/10 08:24:53;;;;;;;5.90;5.28;;;;;;;;;;5100650;28;20262;-67
2023/09/10 08:27:21;;;;;;;5.88;5.28;;;;;;;;;;5100783;28;20210;-68
2023/09/10 08:29:49;;;;;;;5.93;5.45;;;;;;;;;;5100378;28;20236;-67
2023/09/10 08:32:17;;;;;;;5.88;5.25;;;;;;;;;;5100363;28;20211;-67
2023/09/10 08:34:45;;;;;;;7.50;6.07;;;;;;;;;;5100575;28;20235;-68
2023/09/10 08:37:13;;;;;;;5.95;4.70;;;;;;;;;;5100309;28;20211;-67
2023/09/10 08:39:44;;;;;;;5.63;5.13;;;;;;;;;;5100110;28;20239;-67
2023/09/10 08:42:17;;;;;;;7.35;5.20;;;;;;;;;;5099743;28;20213;-67
2023/09/10 08:44:46;;;;;;;7.55;5.97;;;;;;;;;;5100156;28;20207;-67
2023/09/10 08:47:18;;;;;;;6.20;5.13;;;;;;;;;;5100353;28;20214;-67
2023/09/10 08:49:48;;;;;;;5.22;4.82;;;;;;;;;;5099937;28;20580;-67
2023/09/10 08:52:17;;;;;;;10.00;5.47;;;;;;;;;;5099893;28;20215;-67
2023/09/10 08:54:46;;;;;;;6.68;5.47;;;;;;;;;;5100175;28;20206;-68
2023/09/10 08:57:14;;;;;;;5.07;4.57;;;;;;;;;;5099599;28;20760;-68
2023/09/10 08:59:43;;;;;;;6.60;5.57;;;;;;;;;;5099808;28;20212;-67
2023/09/10 09:02:11;;;;;;;5.25;4.75;;;;;;;;;;5099744;28;20586;-67
2023/09/10 09:04:39;;;;;;;6.15;5.10;;;;;;;;;;5099952;28;20212;-67
2023/09/10 09:07:10;;;;;;;5.63;5.10;;;;;;;;;;5099660;28;20277;-68
2023/09/10 09:09:41;;;;;;;5.53;5.03;;;;;;;;;;5099868;28;20218;-67
2023/09/10 09:12:12;;;;;;;5.43;5.03;;;;;;;;;;5099559;28;20204;-67
2023/09/10 09:14:42;;;;;;;6.13;4.88;;;;;;;;;;5099327;28;20739;-67
2023/09/10 09:17:11;;;;;;;5.22;4.80;;;;;;;;;;5099409;28;20686;-67
2023/09/10 09:19:43;;;;;;;5.40;4.90;;;;;;;;;;5099566;28;20235;-67
2023/09/10 09:22:12;;;;;;;5.03;4.45;;;;;;;;;;5099511;28;20614;-67
2023/09/10 09:24:41;;;;;;;5.20;4.75;;;;;;;;;;5099593;28;20302;-67
2023/09/10 09:27:10;;;;;;;7.70;5.18;;;;;;;;;;5099925;28;20200;-68
2023/09/10 09:29:39;;;;;;;5.40;4.95;;;;;;;;;;5099413;28;20204;-67
2023/09/10 09:32:07;;;;;;;5.45;4.95;;;;;;;;;;5099460;28;20675;-67
2023/09/10 09:34:35;;;;;;;6.63;5.18;;;;;;;;;;5099559;28;20258;-67
2023/09/10 09:37:03;;;;;;;6.03;4.63;;;;;;;;;;5099851;28;20233;-67
2023/09/10 09:39:31;;;;;;;5.90;5.32;;;;;;;;;;5099891;28;20290;-67
2023/09/10 09:41:59;;;;;;;5.30;4.80;;;;;;;;;;5088824;28;20254;-67
2023/09/10 09:44:29;;;;;;;5.53;5.13;;;;;;;;;;5098605;28;20254;-67
2023/09/10 09:46:57;;;;;;;5.38;4.55;;;;;;;;;;5099132;28;20208;-67
2023/09/10 09:49:25;;;;;;;8.52;5.15;;;;;;;;;;5098828;28;20676;-67
2023/09/10 09:51:53;;;;;;;7.68;5.10;;;;;;;;;;5098730;28;20274;-67
2023/09/10 09:54:21;;;;;;;5.97;4.95;;;;;;;;;;5097744;28;20207;-67
2023/09/10 09:56:49;;;;;;;5.35;4.90;;;;;;;;;;5098969;28;20229;-67
2023/09/10 09:59:17;;;;;;;7.32;5.32;;;;;;;;;;5098354;28;20305;-67
2023/09/10 10:01:47;;;;;;;5.53;5.05;;;;;;;;;;5098651;28;20225;-67
2023/09/10 10:04:17;;;;;;;5.40;4.90;;;;;;;;;;5098799;28;20225;-67
2023/09/10 10:06:45;;;;;;;5.32;4.90;;;;;;;;;;5098721;28;20197;-67
2023/09/10 10:09:19;;;;;;;5.65;5.15;;;;;;;;;;5098646;28;20248;-67
2023/09/10 10:11:48;;;;;;;5.68;5.18;;;;;;;;;;5098564;28;20264;-67
2023/09/10 10:14:16;;;;;;;7.18;5.03;;;;;;;;;;5098063;28;20216;-67
2023/09/10 10:16:45;;;;;;;11.15;5.60;;;;;;;;;;5098408;28;20233;-67
2023/09/10 10:19:17;;;;;;;6.88;5.68;;;;;;;;;;5098370;28;20668;-67
2023/09/10 10:21:46;;;;;;;5.53;5.13;;;;;;;;;;5098157;28;20225;-67
2023/09/10 10:24:15;;;;;;;8.25;7.45;;;;;;;;;;5098068;28;20661;-68
2023/09/10 10:26:44;;;;;;;6.35;5.75;;;;;;;;;;5098513;28;20284;-66
2023/09/10 10:29:12;;;;;;;6.28;5.68;;;;;;;;;;5097914;28;20236;-67
2023/09/10 10:31:42;;;;;;;6.88;5.22;;;;;;;;;;5098117;28;20235;-66
2023/09/10 10:34:10;;;;;;;5.35;4.90;;;;;;;;;;5098392;28;20201;-67
2023/09/10 10:36:47;;;;;;;5.18;4.78;;;;;;;;;;5098286;28;20268;-67
2023/09/10 10:39:19;;;;;;;5.15;4.65;;;;;;;;;;5098182;28;20224;-67
2023/09/10 10:41:53;;;;;;;5.72;5.22;;;;;;;;;;5097991;28;20700;-67
2023/09/10 10:44:25;;;;;;;4.85;4.45;;;;;;;;;;5097745;28;20740;-67
2023/09/10 10:46:57;;;;;;;5.45;4.95;;;;;;;;;;5097944;28;20202;-66
2023/09/10 10:49:26;;;;;;;5.65;4.35;;;;;;;;;;5098185;28;20227;-66
2023/09/10 10:51:59;;;;;;;4.72;4.35;;;;;;;;;;5098077;28;20298;-66
2023/09/10 10:54:28;;;;;;;5.82;5.20;;;;;;;;;;5097818;28;20215;-67
2023/09/10 10:56:56;;;;;;;4.68;4.28;;;;;;;;;;5098779;28;20252;-66
2023/09/10 10:59:24;;;;;;;6.32;4.50;;;;;;;;;;5098084;28;20278;-67
2023/09/10 11:02:14;;;;;;;5.28;4.30;;;;;;;;;;5098023;28;20228;-67
2023/09/10 11:04:54;;;;;;;4.03;3.72;;;;;;;;;;5100473;28;20205;-67
2023/09/10 11:07:24;;;;;;;4.70;4.30;;;;;;;;;;5104923;28;20606;-66
2023/09/10 11:09:52;;;;;;;5.57;4.20;;;;;;;;;;5104292;28;20212;-67
2023/09/10 11:12:20;;;;;;;5.20;4.50;;;;;;;;;;5104412;28;20208;-66
2023/09/10 11:15:07;;;;;;;4.40;4.00;;;;;;;;;;5104123;28;20205;-67
2023/09/10 11:17:36;;;;;;;5.55;4.45;;;;;;;;;;5104903;28;20225;-68
2023/09/10 11:20:05;;;;;;;4.30;3.90;;;;;;;;;;5104684;28;20228;-66
2023/09/10 11:22:51;;;;;;;5.05;4.50;;;;;;;;;;5104245;28;20223;-66
2023/09/10 11:25:21;;;;;;;4.45;4.05;;;;;;;;;;5104547;28;20215;-66
2023/09/10 11:27:52;;;;;;;4.15;3.85;;;;;;;;;;5104294;28;20690;-67
2023/09/10 11:30:21;;;;;;;4.20;3.80;;;;;;;;;;5104074;28;20225;-66
2023/09/10 11:32:50;;;;;;;3.65;3.35;;;;;;;;;;5104464;28;20302;-66
2023/09/10 11:35:27;;;;;;;4.85;4.22;;;;;;;;;;5104291;28;20209;-66
2023/09/10 11:37:56;;;;;;;4.43;4.03;;;;;;;;;;5104030;28;20274;-66
2023/09/10 11:40:26;;;;;;;5.25;4.38;;;;;;;;;;5104040;28;20266;-66
2023/09/10 11:42:54;;;;;;;4.75;4.35;;;;;;;;;;5104279;28;20235;-66
2023/09/10 11:45:23;;;;;;;4.18;3.78;;;;;;;;;;5104336;28;20239;-65
2023/09/10 11:47:51;;;;;;;5.13;4.72;;;;;;;;;;5104347;28;20200;-66
2023/09/10 11:50:23;;;;;;;7.07;3.72;;;;;;;;;;5104238;28;20228;-66
2023/09/10 11:52:52;;;;;;;7.43;3.72;;;;;;;;;;5104838;28;20212;-66
2023/09/10 11:55:20;;;;;;;4.35;3.90;;;;;;;;;;5103898;28;20201;-66
2023/09/10 11:57:50;;;;;;;4.82;3.50;;;;;;;;;;5103624;28;20237;-66
2023/09/10 12:00:18;;;;;;;5.25;3.80;;;;;;;;;;5103873;28;20225;-66
2023/09/10 12:02:46;;;;;;;3.78;3.47;;;;;;;;;;5103802;28;20231;-66
2023/09/10 12:05:14;;;;;;;4.05;3.63;;;;;;;;;;5104138;28;20291;-68
2023/09/10 12:07:44;;;;;;;4.53;3.70;;;;;;;;;;5103871;28;20201;-66
2023/09/10 12:10:13;;;;;;;3.60;3.30;;;;;;;;;;5103829;28;20328;-68
2023/09/10 12:12:46;;;;;;;3.97;3.53;;;;;;;;;;5103853;28;20209;-67
2023/09/10 12:15:16;;;;;;;4.82;3.85;;;;;;;;;;5103885;28;20277;-66
2023/09/10 12:17:45;;;;;;;6.20;4.15;;;;;;;;;;5100020;28;20225;-66
2023/09/10 12:20:13;;;;;;;3.92;3.60;;;;;;;;;;5100773;28;20221;-67
2023/09/10 12:22:43;;;;;;;7.97;4.57;;;;;;;;;;5100743;28;20661;-66
2023/09/10 12:25:10;;;;;;;4.40;4.00;;;;;;;;;;5100739;28;20236;-66
2023/09/10 12:27:39;;;;;;;5.28;4.32;;;;;;;;;;5100519;28;20205;-67
2023/09/10 12:30:08;;;;;;;5.63;4.00;;;;;;;;;;5100294;28;20225;-66
2023/09/10 12:32:38;;;;;;;4.32;3.85;;;;;;;;;;5100246;28;20210;-67
2023/09/10 12:35:06;;;;;;;5.13;4.40;;;;;;;;;;5100707;28;20212;-66
2023/09/10 12:37:34;;;;;;;5.55;3.92;;;;;;;;;;5100344;28;20251;-67
2023/09/10 12:40:04;;;;;;;4.95;4.05;;;;;;;;;;5100417;28;20241;-67
2023/09/10 12:42:32;;;;;;;4.15;3.78;;;;;;;;;;5100129;28;20552;-66
2023/09/10 12:45:00;;;;;;;5.80;4.10;;;;;;;;;;5100142;28;20207;-66
2023/09/10 12:47:29;;;;;;;4.63;4.22;;;;;;;;;;5100277;28;20215;-67
2023/09/10 12:49:58;;;;;;;4.45;4.05;;;;;;;;;;5100292;28;20229;-67
2023/09/10 12:52:27;;;;;;;6.18;3.92;;;;;;;;;;5100205;28;20211;-66
2023/09/10 12:54:55;;;;;;;4.90;4.30;;;;;;;;;;5100177;28;20220;-67
2023/09/10 12:57:23;;;;;;;4.25;3.85;;;;;;;;;;5099759;28;20229;-67
2023/09/10 12:59:53;;;;;;;3.85;3.55;;;;;;;;;;5099372;28;20637;-67
2023/09/10 13:02:22;;;;;;;3.70;3.35;;;;;;;;;;5099545;28;20202;-67
2023/09/10 13:04:50;;;;;;;3.72;3.25;;;;;;;;;;5100005;28;20673;-67
2023/09/10 13:07:20;;;;;;;4.95;4.20;;;;;;;;;;5099699;28;20269;-67
2023/09/10 13:09:48;;;;;;;3.60;3.30;;;;;;;;;;5099574;28;20609;-66
2023/09/10 13:12:16;;;;;;;3.80;3.17;;;;;;;;;;5099890;28;20205;-66
2023/09/10 13:14:45;;;;;;;4.13;2.83;;;;;;;;;;5099530;28;20208;-66
2023/09/10 13:17:13;;;;;;;3.90;3.50;;;;;;;;;;5099412;28;20205;-67
2023/09/10 13:19:41;;;;;;;3.70;3.30;;;;;;;;;;5099580;28;20233;-66
2023/09/10 13:22:09;;;;;;;3.70;3.40;;;;;;;;;;5099459;28;20205;-67
2023/09/10 13:24:38;;;;;;;3.60;3.30;;;;;;;;;;5099458;28;20209;-65
2023/09/10 13:27:07;;;;;;;4.05;3.75;;;;;;;;;;5099526;28;20209;-66
2023/09/10 13:29:35;;;;;;;3.90;3.60;;;;;;;;;;5097929;28;20208;-68
2023/09/10 13:32:03;;;;;;;3.28;3.08;;;;;;;;;;5099533;28;20205;-66
2023/09/10 13:34:31;;;;;;;5.43;3.40;;;;;;;;;;5099371;28;20297;-67
2023/09/10 13:36:59;;;;;;;4.07;3.67;;;;;;;;;;5099140;28;20299;-65
2023/09/10 13:39:27;;;;;;;3.33;3.03;;;;;;;;;;5099066;28;20225;-65
2023/09/10 13:41:57;;;;;;;3.35;3.15;;;;;;;;;;5098903;28;20229;-66
2023/09/10 13:44:24;;;;;;;3.25;3.03;;;;;;;;;;5098837;28;20201;-65
2023/09/10 13:46:53;;;;;;;3.50;3.20;;;;;;;;;;5099000;28;20228;-66
2023/09/10 13:49:21;;;;;;;4.65;3.03;;;;;;;;;;5098582;28;20661;-66
2023/09/10 13:51:48;;;;;;;3.88;3.50;;;;;;;;;;5098796;28;20696;-66
2023/09/10 13:54:17;;;;;;;3.50;3.20;;;;;;;;;;5098959;28;20248;-65
2023/09/10 13:56:45;;;;;;;3.15;2.95;;;;;;;;;;5099060;28;20209;-66
2023/09/10 13:59:14;;;;;;;3.97;3.10;;;;;;;;;;5098207;28;20282;-66
2023/09/10 14:01:42;;;;;;;3.60;3.28;;;;;;;;;;5098944;28;20229;-66
2023/09/10 14:04:12;;;;;;;4.00;3.60;;;;;;;;;;5098594;28;20213;-65
2023/09/10 14:06:40;;;;;;;5.43;3.40;;;;;;;;;;5098973;28;20259;-66
2023/09/10 14:09:09;;;;;;;4.00;3.53;;;;;;;;;;5098653;28;20640;-67
2023/09/10 14:11:37;;;;;;;4.10;3.70;;;;;;;;;;5098680;28;20232;-67
2023/09/10 14:14:05;;;;;;;4.75;3.35;;;;;;;;;;5098544;28;20201;-67
2023/09/10 14:16:34;;;;;;;4.40;3.30;;;;;;;;;;5098672;28;20205;-67
2023/09/10 14:19:02;;;;;;;3.50;3.20;;;;;;;;;;5098263;28;20266;-67
2023/09/10 14:21:30;;;;;;;3.30;3.00;;;;;;;;;;5098214;28;20232;-68
2023/09/10 14:23:58;;;;;;;4.00;2.92;;;;;;;;;;5098116;28;20270;-66
2023/09/10 14:26:26;;;;;;;3.28;2.97;;;;;;;;;;5098160;28;20213;-66
2023/09/10 14:28:54;;;;;;;3.13;2.90;;;;;;;;;;5098357;28;20201;-65
2023/09/10 14:31:22;;;;;;;3.45;3.25;;;;;;;;;;5098103;28;20612;-65
2023/09/10 14:33:52;;;;;;;3.55;3.25;;;;;;;;;;5098179;28;20233;-66
2023/09/10 14:36:22;;;;;;;3.75;3.28;;;;;;;;;;5098150;28;20209;-68
2023/09/10 14:38:50;;;;;;;3.50;3.20;;;;;;;;;;5098110;28;20229;-68
2023/09/10 14:41:18;;;;;;;3.63;2.97;;;;;;;;;;5097903;28;20222;-67
2023/09/10 14:43:46;;;;;;;3.05;2.85;;;;;;;;;;5097806;28;20213;-66
2023/09/10 14:46:14;;;;;;;4.10;3.70;;;;;;;;;;5097934;28;20718;-66
2023/09/10 14:48:42;;;;;;;3.35;3.05;;;;;;;;;;5097867;28;20197;-67
2023/09/10 14:51:12;;;;;;;4.97;3.33;;;;;;;;;;5097860;28;20757;-66
2023/09/10 14:53:40;;;;;;;3.40;3.10;;;;;;;;;;5097798;28;20259;-66